sensor_id;sensor_type;location;lat;lon;timestamp;P1;durP1;ratioP1;P2;durP2;ratioP2
84891;SDS011;75154;42.072;21.394;2024-01-06T00:01:41;48.03;;;24.88;;
84891;SDS011;75154;42.072;21.394;2024-01-06T00:04:08;58.13;;;33.10;;
84891;SDS011;75154;42.072;21.394;2024-01-06T00:06:34;50.35;;;28.33;;
84891;SDS011;75154;42.072;21.394;2024-01-06T00:09:00;60.10;;;31.35;;
84891;SDS011;75154;42.072;21.394;2024-01-06T00:11:26;56.67;;;32.63;;
84891;SDS011;75154;42.072;21.394;2024-01-06T00:13:52;72.38;;;40.13;;
84891;SDS011;75154;42.072;21.394;2024-01-06T00:16:18;78.13;;;40.72;;
84891;SDS011;75154;42.072;21.394;2024-01-06T00:18:48;70.05;;;35.45;;
84891;SDS011;75154;42.072;21.394;2024-01-06T00:21:14;64.70;;;33.05;;
84891;SDS011;75154;42.072;21.394;2024-01-06T00:23:40;64.75;;;35.53;;
84891;SDS011;75154;42.072;21.394;2024-01-06T00:26:07;61.20;;;32.53;;
84891;SDS011;75154;42.072;21.394;2024-01-06T00:28:37;58.33;;;34.05;;
84891;SDS011;75154;42.072;21.394;2024-01-06T00:31:04;60.95;;;33.60;;
84891;SDS011;75154;42.072;21.394;2024-01-06T00:33:30;66.00;;;36.15;;
84891;SDS011;75154;42.072;21.394;2024-01-06T00:35:57;92.05;;;42.10;;
84891;SDS011;75154;42.072;21.394;2024-01-06T00:38:23;63.65;;;36.85;;
84891;SDS011;75154;42.072;21.394;2024-01-06T00:40:49;64.57;;;35.00;;
84891;SDS011;75154;42.072;21.394;2024-01-06T00:43:15;69.70;;;34.97;;
84891;SDS011;75154;42.072;21.394;2024-01-06T00:45:41;52.67;;;30.92;;
84891;SDS011;75154;42.072;21.394;2024-01-06T00:48:07;57.60;;;31.83;;
84891;SDS011;75154;42.072;21.394;2024-01-06T00:50:33;54.22;;;29.85;;
84891;SDS011;75154;42.072;21.394;2024-01-06T00:52:59;60.42;;;30.77;;
84891;SDS011;75154;42.072;21.394;2024-01-06T00:55:25;52.90;;;30.38;;
84891;SDS011;75154;42.072;21.394;2024-01-06T00:57:51;50.58;;;28.98;;
84891;SDS011;75154;42.072;21.394;2024-01-06T01:00:17;47.50;;;27.23;;
84891;SDS011;75154;42.072;21.394;2024-01-06T01:02:43;58.42;;;30.90;;
84891;SDS011;75154;42.072;21.394;2024-01-06T01:05:09;67.57;;;33.35;;
84891;SDS011;75154;42.072;21.394;2024-01-06T01:07:35;61.58;;;31.92;;
84891;SDS011;75154;42.072;21.394;2024-01-06T01:10:02;59.45;;;30.70;;
84891;SDS011;75154;42.072;21.394;2024-01-06T01:12:28;58.90;;;28.50;;
84891;SDS011;75154;42.072;21.394;2024-01-06T01:14:54;55.53;;;30.35;;
84891;SDS011;75154;42.072;21.394;2024-01-06T01:17:20;52.63;;;28.83;;
84891;SDS011;75154;42.072;21.394;2024-01-06T01:19:46;45.22;;;24.00;;
84891;SDS011;75154;42.072;21.394;2024-01-06T01:22:14;43.92;;;26.83;;
84891;SDS011;75154;42.072;21.394;2024-01-06T01:24:40;46.33;;;25.73;;
84891;SDS011;75154;42.072;21.394;2024-01-06T01:27:07;47.83;;;24.10;;
84891;SDS011;75154;42.072;21.394;2024-01-06T01:29:33;46.63;;;23.17;;
84891;SDS011;75154;42.072;21.394;2024-01-06T01:31:59;46.25;;;23.75;;
84891;SDS011;75154;42.072;21.394;2024-01-06T01:34:25;40.25;;;22.55;;
84891;SDS011;75154;42.072;21.394;2024-01-06T01:36:51;42.10;;;21.98;;
84891;SDS011;75154;42.072;21.394;2024-01-06T01:39:17;43.28;;;21.48;;
84891;SDS011;75154;42.072;21.394;2024-01-06T01:41:43;35.88;;;19.30;;
84891;SDS011;75154;42.072;21.394;2024-01-06T01:44:09;36.33;;;19.23;;
84891;SDS011;75154;42.072;21.394;2024-01-06T01:46:35;36.13;;;20.15;;
84891;SDS011;75154;42.072;21.394;2024-01-06T01:49:03;49.85;;;26.05;;
84891;SDS011;75154;42.072;21.394;2024-01-06T01:51:30;72.20;;;36.38;;
84891;SDS011;75154;42.072;21.394;2024-01-06T01:53:57;87.25;;;43.58;;
84891;SDS011;75154;42.072;21.394;2024-01-06T01:56:24;70.38;;;34.88;;
84891;SDS011;75154;42.072;21.394;2024-01-06T01:58:50;50.55;;;24.40;;
84891;SDS011;75154;42.072;21.394;2024-01-06T02:01:17;69.35;;;36.00;;
84891;SDS011;75154;42.072;21.394;2024-01-06T02:03:43;66.75;;;34.33;;
84891;SDS011;75154;42.072;21.394;2024-01-06T02:06:12;76.07;;;34.92;;
84891;SDS011;75154;42.072;21.394;2024-01-06T02:08:38;109.00;;;50.85;;
84891;SDS011;75154;42.072;21.394;2024-01-06T02:11:05;102.25;;;47.20;;
84891;SDS011;75154;42.072;21.394;2024-01-06T02:13:35;91.25;;;45.72;;
84891;SDS011;75154;42.072;21.394;2024-01-06T02:18:27;93.50;;;46.50;;
84891;SDS011;75154;42.072;21.394;2024-01-06T02:20:53;87.40;;;46.30;;
84891;SDS011;75154;42.072;21.394;2024-01-06T02:23:23;103.28;;;54.35;;
84891;SDS011;75154;42.072;21.394;2024-01-06T02:25:49;112.20;;;55.72;;
84891;SDS011;75154;42.072;21.394;2024-01-06T02:28:15;95.28;;;48.55;;
84891;SDS011;75154;42.072;21.394;2024-01-06T02:30:41;96.65;;;49.25;;
84891;SDS011;75154;42.072;21.394;2024-01-06T02:33:07;95.85;;;46.78;;
84891;SDS011;75154;42.072;21.394;2024-01-06T02:35:34;111.03;;;55.05;;
84891;SDS011;75154;42.072;21.394;2024-01-06T02:38:00;103.55;;;51.40;;
84891;SDS011;75154;42.072;21.394;2024-01-06T02:40:27;113.85;;;53.45;;
84891;SDS011;75154;42.072;21.394;2024-01-06T02:42:53;97.47;;;48.30;;
84891;SDS011;75154;42.072;21.394;2024-01-06T02:45:19;84.15;;;44.10;;
84891;SDS011;75154;42.072;21.394;2024-01-06T02:47:45;90.28;;;44.65;;
84891;SDS011;75154;42.072;21.394;2024-01-06T02:50:11;79.25;;;40.42;;
84891;SDS011;75154;42.072;21.394;2024-01-06T02:52:37;74.45;;;39.80;;
84891;SDS011;75154;42.072;21.394;2024-01-06T02:55:03;73.07;;;41.03;;
84891;SDS011;75154;42.072;21.394;2024-01-06T02:57:29;67.90;;;34.20;;
84891;SDS011;75154;42.072;21.394;2024-01-06T02:59:56;78.85;;;35.70;;
84891;SDS011;75154;42.072;21.394;2024-01-06T03:02:22;65.70;;;32.83;;
84891;SDS011;75154;42.072;21.394;2024-01-06T03:04:48;56.90;;;30.83;;
84891;SDS011;75154;42.072;21.394;2024-01-06T03:07:14;55.05;;;29.23;;
84891;SDS011;75154;42.072;21.394;2024-01-06T03:09:40;58.58;;;30.67;;
84891;SDS011;75154;42.072;21.394;2024-01-06T03:12:06;59.38;;;30.55;;
84891;SDS011;75154;42.072;21.394;2024-01-06T03:14:35;62.50;;;30.08;;
84891;SDS011;75154;42.072;21.394;2024-01-06T03:17:02;65.80;;;33.53;;
84891;SDS011;75154;42.072;21.394;2024-01-06T03:19:28;71.82;;;33.25;;
84891;SDS011;75154;42.072;21.394;2024-01-06T03:21:54;64.90;;;33.40;;
84891;SDS011;75154;42.072;21.394;2024-01-06T03:24:20;76.93;;;34.72;;
84891;SDS011;75154;42.072;21.394;2024-01-06T03:26:46;86.28;;;39.67;;
84891;SDS011;75154;42.072;21.394;2024-01-06T03:29:13;84.82;;;39.05;;
84891;SDS011;75154;42.072;21.394;2024-01-06T03:31:42;71.95;;;34.40;;
84891;SDS011;75154;42.072;21.394;2024-01-06T03:34:08;59.25;;;30.05;;
84891;SDS011;75154;42.072;21.394;2024-01-06T03:36:36;45.65;;;26.17;;
84891;SDS011;75154;42.072;21.394;2024-01-06T03:39:02;46.08;;;24.08;;
84891;SDS011;75154;42.072;21.394;2024-01-06T03:41:28;42.53;;;22.48;;
84891;SDS011;75154;42.072;21.394;2024-01-06T03:43:54;37.08;;;21.35;;
84891;SDS011;75154;42.072;21.394;2024-01-06T03:46:20;38.47;;;21.35;;
84891;SDS011;75154;42.072;21.394;2024-01-06T03:48:47;33.05;;;19.60;;
84891;SDS011;75154;42.072;21.394;2024-01-06T03:51:13;31.83;;;18.20;;
84891;SDS011;75154;42.072;21.394;2024-01-06T03:53:39;29.95;;;17.73;;
84891;SDS011;75154;42.072;21.394;2024-01-06T03:56:08;31.67;;;17.73;;
84891;SDS011;75154;42.072;21.394;2024-01-06T03:58:34;29.95;;;16.88;;
84891;SDS011;75154;42.072;21.394;2024-01-06T04:01:00;39.28;;;18.77;;
84891;SDS011;75154;42.072;21.394;2024-01-06T04:03:26;37.67;;;20.25;;
84891;SDS011;75154;42.072;21.394;2024-01-06T04:05:52;40.47;;;19.20;;
84891;SDS011;75154;42.072;21.394;2024-01-06T04:08:19;37.72;;;19.77;;
84891;SDS011;75154;42.072;21.394;2024-01-06T04:10:45;41.45;;;18.98;;
84891;SDS011;75154;42.072;21.394;2024-01-06T04:13:11;40.70;;;19.98;;
84891;SDS011;75154;42.072;21.394;2024-01-06T04:15:37;37.28;;;19.52;;
84891;SDS011;75154;42.072;21.394;2024-01-06T04:18:04;38.13;;;18.83;;
84891;SDS011;75154;42.072;21.394;2024-01-06T04:20:30;52.70;;;20.73;;
84891;SDS011;75154;42.072;21.394;2024-01-06T04:22:57;33.67;;;18.52;;
84891;SDS011;75154;42.072;21.394;2024-01-06T04:25:23;49.65;;;23.92;;
84891;SDS011;75154;42.072;21.394;2024-01-06T04:27:49;47.33;;;23.75;;
84891;SDS011;75154;42.072;21.394;2024-01-06T04:30:15;53.72;;;24.63;;
84891;SDS011;75154;42.072;21.394;2024-01-06T04:32:41;61.53;;;29.10;;
84891;SDS011;75154;42.072;21.394;2024-01-06T04:35:08;53.38;;;26.55;;
84891;SDS011;75154;42.072;21.394;2024-01-06T04:37:34;43.53;;;23.52;;
84891;SDS011;75154;42.072;21.394;2024-01-06T04:40:00;50.28;;;25.60;;
84891;SDS011;75154;42.072;21.394;2024-01-06T04:42:26;51.42;;;25.35;;
84891;SDS011;75154;42.072;21.394;2024-01-06T04:44:52;45.53;;;25.02;;
84891;SDS011;75154;42.072;21.394;2024-01-06T04:47:19;48.40;;;24.90;;
84891;SDS011;75154;42.072;21.394;2024-01-06T04:49:45;47.38;;;23.67;;
84891;SDS011;75154;42.072;21.394;2024-01-06T04:52:11;49.03;;;26.55;;
84891;SDS011;75154;42.072;21.394;2024-01-06T04:54:37;49.10;;;26.23;;
84891;SDS011;75154;42.072;21.394;2024-01-06T04:57:03;52.75;;;24.98;;
84891;SDS011;75154;42.072;21.394;2024-01-06T04:59:30;51.28;;;26.27;;
84891;SDS011;75154;42.072;21.394;2024-01-06T05:01:56;49.67;;;25.33;;
84891;SDS011;75154;42.072;21.394;2024-01-06T05:04:23;59.45;;;25.02;;
84891;SDS011;75154;42.072;21.394;2024-01-06T05:06:50;57.65;;;24.90;;
84891;SDS011;75154;42.072;21.394;2024-01-06T05:09:17;46.88;;;25.30;;
84891;SDS011;75154;42.072;21.394;2024-01-06T05:11:43;41.20;;;21.13;;
84891;SDS011;75154;42.072;21.394;2024-01-06T05:14:09;44.08;;;23.25;;
84891;SDS011;75154;42.072;21.394;2024-01-06T05:16:35;48.05;;;22.38;;
84891;SDS011;75154;42.072;21.394;2024-01-06T05:19:01;47.45;;;21.10;;
84891;SDS011;75154;42.072;21.394;2024-01-06T05:21:28;39.03;;;22.67;;
84891;SDS011;75154;42.072;21.394;2024-01-06T05:23:54;45.38;;;21.50;;
84891;SDS011;75154;42.072;21.394;2024-01-06T05:26:20;42.83;;;21.70;;
84891;SDS011;75154;42.072;21.394;2024-01-06T05:28:46;41.78;;;21.70;;
84891;SDS011;75154;42.072;21.394;2024-01-06T05:31:12;52.50;;;25.42;;
84891;SDS011;75154;42.072;21.394;2024-01-06T05:33:38;40.25;;;20.17;;
84891;SDS011;75154;42.072;21.394;2024-01-06T05:36:04;40.90;;;19.38;;
84891;SDS011;75154;42.072;21.394;2024-01-06T05:38:30;38.85;;;19.00;;
84891;SDS011;75154;42.072;21.394;2024-01-06T05:40:56;44.78;;;21.45;;
84891;SDS011;75154;42.072;21.394;2024-01-06T05:43:23;39.95;;;20.10;;
84891;SDS011;75154;42.072;21.394;2024-01-06T05:45:49;43.90;;;22.73;;
84891;SDS011;75154;42.072;21.394;2024-01-06T05:48:15;60.83;;;27.35;;
84891;SDS011;75154;42.072;21.394;2024-01-06T05:50:42;53.10;;;23.25;;
84891;SDS011;75154;42.072;21.394;2024-01-06T05:53:08;40.35;;;22.50;;
84891;SDS011;75154;42.072;21.394;2024-01-06T05:55:35;41.35;;;19.73;;
84891;SDS011;75154;42.072;21.394;2024-01-06T05:58:02;35.83;;;19.83;;
84891;SDS011;75154;42.072;21.394;2024-01-06T06:00:28;43.63;;;22.13;;
84891;SDS011;75154;42.072;21.394;2024-01-06T06:02:56;42.50;;;23.73;;
84891;SDS011;75154;42.072;21.394;2024-01-06T06:05:22;45.58;;;23.92;;
84891;SDS011;75154;42.072;21.394;2024-01-06T06:07:48;34.55;;;20.45;;
84891;SDS011;75154;42.072;21.394;2024-01-06T06:10:15;45.15;;;21.50;;
84891;SDS011;75154;42.072;21.394;2024-01-06T06:12:43;39.50;;;20.63;;
84891;SDS011;75154;42.072;21.394;2024-01-06T06:15:09;37.35;;;20.20;;
84891;SDS011;75154;42.072;21.394;2024-01-06T06:17:35;38.65;;;22.27;;
84891;SDS011;75154;42.072;21.394;2024-01-06T06:20:02;39.92;;;20.40;;
84891;SDS011;75154;42.072;21.394;2024-01-06T06:22:28;46.28;;;21.83;;
84891;SDS011;75154;42.072;21.394;2024-01-06T06:24:57;64.70;;;32.33;;
84891;SDS011;75154;42.072;21.394;2024-01-06T06:27:23;95.10;;;42.42;;
84891;SDS011;75154;42.072;21.394;2024-01-06T06:29:50;81.05;;;38.58;;
84891;SDS011;75154;42.072;21.394;2024-01-06T06:32:16;84.80;;;43.95;;
84891;SDS011;75154;42.072;21.394;2024-01-06T06:34:42;91.20;;;43.17;;
84891;SDS011;75154;42.072;21.394;2024-01-06T06:37:08;85.72;;;41.95;;
84891;SDS011;75154;42.072;21.394;2024-01-06T06:39:34;85.18;;;39.15;;
84891;SDS011;75154;42.072;21.394;2024-01-06T06:42:01;106.15;;;52.10;;
84891;SDS011;75154;42.072;21.394;2024-01-06T06:44:27;92.75;;;44.05;;
84891;SDS011;75154;42.072;21.394;2024-01-06T06:46:54;82.05;;;37.40;;
84891;SDS011;75154;42.072;21.394;2024-01-06T06:49:20;60.13;;;33.67;;
84891;SDS011;75154;42.072;21.394;2024-01-06T06:51:46;64.75;;;34.10;;
84891;SDS011;75154;42.072;21.394;2024-01-06T06:54:16;72.18;;;34.33;;
84891;SDS011;75154;42.072;21.394;2024-01-06T06:56:42;71.47;;;32.38;;
84891;SDS011;75154;42.072;21.394;2024-01-06T06:59:09;94.20;;;46.15;;
84891;SDS011;75154;42.072;21.394;2024-01-06T07:01:35;80.63;;;41.88;;
84891;SDS011;75154;42.072;21.394;2024-01-06T07:04:01;91.65;;;48.53;;
84891;SDS011;75154;42.072;21.394;2024-01-06T07:06:28;81.63;;;41.75;;
84891;SDS011;75154;42.072;21.394;2024-01-06T07:08:54;85.63;;;47.38;;
84891;SDS011;75154;42.072;21.394;2024-01-06T07:11:20;113.93;;;57.33;;
84891;SDS011;75154;42.072;21.394;2024-01-06T07:13:46;88.78;;;49.33;;
84891;SDS011;75154;42.072;21.394;2024-01-06T07:16:13;108.32;;;54.45;;
84891;SDS011;75154;42.072;21.394;2024-01-06T07:18:39;104.65;;;53.08;;
84891;SDS011;75154;42.072;21.394;2024-01-06T07:21:05;113.63;;;58.13;;
84891;SDS011;75154;42.072;21.394;2024-01-06T07:23:31;96.63;;;51.28;;
84891;SDS011;75154;42.072;21.394;2024-01-06T07:25:57;102.55;;;51.80;;
84891;SDS011;75154;42.072;21.394;2024-01-06T07:28:23;92.60;;;47.88;;
84891;SDS011;75154;42.072;21.394;2024-01-06T07:30:50;114.70;;;62.20;;
84891;SDS011;75154;42.072;21.394;2024-01-06T07:33:16;128.85;;;77.50;;
84891;SDS011;75154;42.072;21.394;2024-01-06T07:35:42;135.80;;;77.97;;
84891;SDS011;75154;42.072;21.394;2024-01-06T07:38:09;129.55;;;70.53;;
84891;SDS011;75154;42.072;21.394;2024-01-06T07:40:38;109.53;;;68.32;;
84891;SDS011;75154;42.072;21.394;2024-01-06T07:43:04;121.53;;;72.72;;
84891;SDS011;75154;42.072;21.394;2024-01-06T07:45:31;167.52;;;82.05;;
84891;SDS011;75154;42.072;21.394;2024-01-06T07:47:57;142.57;;;74.43;;
84891;SDS011;75154;42.072;21.394;2024-01-06T07:50:23;142.45;;;80.63;;
84891;SDS011;75154;42.072;21.394;2024-01-06T07:52:49;136.85;;;71.57;;
84891;SDS011;75154;42.072;21.394;2024-01-06T07:55:15;119.63;;;66.05;;
84891;SDS011;75154;42.072;21.394;2024-01-06T07:57:42;119.53;;;69.30;;
84891;SDS011;75154;42.072;21.394;2024-01-06T08:00:10;156.82;;;85.60;;
84891;SDS011;75154;42.072;21.394;2024-01-06T08:02:39;105.20;;;63.40;;
84891;SDS011;75154;42.072;21.394;2024-01-06T08:05:06;115.70;;;63.97;;
84891;SDS011;75154;42.072;21.394;2024-01-06T08:07:32;90.80;;;53.33;;
84891;SDS011;75154;42.072;21.394;2024-01-06T08:09:58;66.03;;;41.67;;
84891;SDS011;75154;42.072;21.394;2024-01-06T08:12:24;67.00;;;41.15;;
84891;SDS011;75154;42.072;21.394;2024-01-06T08:14:50;62.00;;;35.55;;
84891;SDS011;75154;42.072;21.394;2024-01-06T08:17:17;53.30;;;32.22;;
84891;SDS011;75154;42.072;21.394;2024-01-06T08:19:43;73.55;;;41.72;;
84891;SDS011;75154;42.072;21.394;2024-01-06T08:22:11;63.00;;;37.67;;
84891;SDS011;75154;42.072;21.394;2024-01-06T08:24:37;66.93;;;42.88;;
84891;SDS011;75154;42.072;21.394;2024-01-06T08:27:03;68.18;;;38.38;;
84891;SDS011;75154;42.072;21.394;2024-01-06T08:29:30;60.08;;;35.50;;
84891;SDS011;75154;42.072;21.394;2024-01-06T08:31:56;60.35;;;40.20;;
84891;SDS011;75154;42.072;21.394;2024-01-06T08:34:22;65.53;;;41.42;;
84891;SDS011;75154;42.072;21.394;2024-01-06T08:36:48;54.40;;;32.13;;
84891;SDS011;75154;42.072;21.394;2024-01-06T08:39:15;57.63;;;34.55;;
84891;SDS011;75154;42.072;21.394;2024-01-06T08:41:41;56.25;;;34.47;;
84891;SDS011;75154;42.072;21.394;2024-01-06T08:44:07;37.88;;;24.27;;
84891;SDS011;75154;42.072;21.394;2024-01-06T08:46:33;47.15;;;31.50;;
84891;SDS011;75154;42.072;21.394;2024-01-06T08:48:59;40.20;;;25.92;;
84891;SDS011;75154;42.072;21.394;2024-01-06T08:51:26;33.53;;;22.63;;
84891;SDS011;75154;42.072;21.394;2024-01-06T08:53:52;39.15;;;26.45;;
84891;SDS011;75154;42.072;21.394;2024-01-06T08:56:18;37.30;;;25.83;;
84891;SDS011;75154;42.072;21.394;2024-01-06T08:58:44;46.22;;;31.05;;
84891;SDS011;75154;42.072;21.394;2024-01-06T09:01:11;44.45;;;30.58;;
84891;SDS011;75154;42.072;21.394;2024-01-06T09:03:38;46.08;;;30.65;;
84891;SDS011;75154;42.072;21.394;2024-01-06T09:06:04;51.08;;;31.50;;
84891;SDS011;75154;42.072;21.394;2024-01-06T09:08:30;45.92;;;30.20;;
84891;SDS011;75154;42.072;21.394;2024-01-06T09:10:56;48.72;;;31.67;;
84891;SDS011;75154;42.072;21.394;2024-01-06T09:13:23;45.95;;;29.17;;
84891;SDS011;75154;42.072;21.394;2024-01-06T09:15:50;45.60;;;31.15;;
84891;SDS011;75154;42.072;21.394;2024-01-06T09:18:16;42.78;;;29.63;;
84891;SDS011;75154;42.072;21.394;2024-01-06T09:20:42;38.33;;;23.17;;
84891;SDS011;75154;42.072;21.394;2024-01-06T09:23:08;36.83;;;26.23;;
84891;SDS011;75154;42.072;21.394;2024-01-06T09:25:35;36.63;;;24.83;;
84891;SDS011;75154;42.072;21.394;2024-01-06T09:28:01;32.67;;;23.15;;
84891;SDS011;75154;42.072;21.394;2024-01-06T09:30:27;36.85;;;23.45;;
84891;SDS011;75154;42.072;21.394;2024-01-06T09:32:53;36.58;;;22.80;;
84891;SDS011;75154;42.072;21.394;2024-01-06T09:35:19;34.80;;;22.42;;
84891;SDS011;75154;42.072;21.394;2024-01-06T09:37:45;44.38;;;25.45;;
84891;SDS011;75154;42.072;21.394;2024-01-06T09:40:12;46.33;;;30.42;;
84891;SDS011;75154;42.072;21.394;2024-01-06T09:42:39;44.33;;;28.42;;
84891;SDS011;75154;42.072;21.394;2024-01-06T09:45:05;27.90;;;18.98;;
84891;SDS011;75154;42.072;21.394;2024-01-06T09:47:32;40.67;;;28.83;;
84891;SDS011;75154;42.072;21.394;2024-01-06T09:50:00;46.15;;;29.85;;
84891;SDS011;75154;42.072;21.394;2024-01-06T09:52:28;35.85;;;24.05;;
84891;SDS011;75154;42.072;21.394;2024-01-06T09:54:55;26.48;;;17.98;;
84891;SDS011;75154;42.072;21.394;2024-01-06T09:57:21;28.75;;;21.52;;
84891;SDS011;75154;42.072;21.394;2024-01-06T09:59:48;58.25;;;39.92;;
84891;SDS011;75154;42.072;21.394;2024-01-06T10:02:15;50.92;;;34.47;;
84891;SDS011;75154;42.072;21.394;2024-01-06T10:04:42;50.05;;;34.40;;
84891;SDS011;75154;42.072;21.394;2024-01-06T10:07:08;53.15;;;35.83;;
84891;SDS011;75154;42.072;21.394;2024-01-06T10:09:37;52.15;;;33.65;;
84891;SDS011;75154;42.072;21.394;2024-01-06T10:12:04;47.17;;;30.73;;
84891;SDS011;75154;42.072;21.394;2024-01-06T10:14:30;30.38;;;19.05;;
84891;SDS011;75154;42.072;21.394;2024-01-06T10:16:56;31.50;;;20.98;;
84891;SDS011;75154;42.072;21.394;2024-01-06T10:19:23;29.67;;;20.00;;
84891;SDS011;75154;42.072;21.394;2024-01-06T10:21:49;25.77;;;17.05;;
84891;SDS011;75154;42.072;21.394;2024-01-06T10:24:18;59.60;;;39.50;;
84891;SDS011;75154;42.072;21.394;2024-01-06T10:26:45;71.78;;;49.15;;
84891;SDS011;75154;42.072;21.394;2024-01-06T10:29:12;72.75;;;50.13;;
84891;SDS011;75154;42.072;21.394;2024-01-06T10:31:38;49.20;;;33.70;;
84891;SDS011;75154;42.072;21.394;2024-01-06T10:34:05;42.78;;;28.92;;
84891;SDS011;75154;42.072;21.394;2024-01-06T10:36:31;26.15;;;18.23;;
84891;SDS011;75154;42.072;21.394;2024-01-06T10:38:57;47.95;;;32.42;;
84891;SDS011;75154;42.072;21.394;2024-01-06T10:41:23;54.92;;;37.25;;
84891;SDS011;75154;42.072;21.394;2024-01-06T10:43:50;44.85;;;32.85;;
84891;SDS011;75154;42.072;21.394;2024-01-06T10:46:18;44.88;;;32.53;;
84891;SDS011;75154;42.072;21.394;2024-01-06T10:48:44;39.30;;;27.15;;
84891;SDS011;75154;42.072;21.394;2024-01-06T10:51:12;39.75;;;27.58;;
84891;SDS011;75154;42.072;21.394;2024-01-06T10:53:41;44.83;;;30.13;;
84891;SDS011;75154;42.072;21.394;2024-01-06T10:56:08;44.33;;;31.10;;
84891;SDS011;75154;42.072;21.394;2024-01-06T10:58:35;44.25;;;31.05;;
84891;SDS011;75154;42.072;21.394;2024-01-06T11:01:12;41.70;;;29.77;;
84891;SDS011;75154;42.072;21.394;2024-01-06T11:03:38;45.28;;;29.42;;
84891;SDS011;75154;42.072;21.394;2024-01-06T11:06:05;49.38;;;31.30;;
84891;SDS011;75154;42.072;21.394;2024-01-06T11:08:36;45.50;;;31.70;;
84891;SDS011;75154;42.072;21.394;2024-01-06T11:11:04;43.22;;;30.33;;
84891;SDS011;75154;42.072;21.394;2024-01-06T11:13:30;47.55;;;31.67;;
84891;SDS011;75154;42.072;21.394;2024-01-06T11:15:59;48.50;;;31.58;;
84891;SDS011;75154;42.072;21.394;2024-01-06T11:23:38;23.05;;;15.68;;
84891;SDS011;75154;42.072;21.394;2024-01-06T11:26:06;22.08;;;16.02;;
84891;SDS011;75154;42.072;21.394;2024-01-06T11:28:42;21.27;;;14.43;;
84891;SDS011;75154;42.072;21.394;2024-01-06T11:31:08;30.08;;;18.90;;
84891;SDS011;75154;42.072;21.394;2024-01-06T11:33:40;39.83;;;26.25;;
84891;SDS011;75154;42.072;21.394;2024-01-06T11:36:09;34.97;;;24.20;;
84891;SDS011;75154;42.072;21.394;2024-01-06T11:38:42;39.78;;;29.52;;
84891;SDS011;75154;42.072;21.394;2024-01-06T11:41:44;39.30;;;25.75;;
84891;SDS011;75154;42.072;21.394;2024-01-06T11:43:59;30.13;;;19.75;;
84891;SDS011;75154;42.072;21.394;2024-01-06T11:46:25;29.25;;;20.42;;
84891;SDS011;75154;42.072;21.394;2024-01-06T11:48:52;27.10;;;18.30;;
84891;SDS011;75154;42.072;21.394;2024-01-06T11:51:18;230.70;;;111.75;;
84891;SDS011;75154;42.072;21.394;2024-01-06T11:53:44;230.18;;;104.95;;
84891;SDS011;75154;42.072;21.394;2024-01-06T11:56:11;102.63;;;48.58;;
84891;SDS011;75154;42.072;21.394;2024-01-06T11:58:40;29.02;;;20.58;;
84891;SDS011;75154;42.072;21.394;2024-01-06T12:01:07;59.67;;;32.08;;
84891;SDS011;75154;42.072;21.394;2024-01-06T12:03:33;129.35;;;65.13;;
84891;SDS011;75154;42.072;21.394;2024-01-06T12:06:00;152.07;;;70.43;;
84891;SDS011;75154;42.072;21.394;2024-01-06T12:08:27;39.80;;;21.73;;
84891;SDS011;75154;42.072;21.394;2024-01-06T12:11:03;35.88;;;20.92;;
84891;SDS011;75154;42.072;21.394;2024-01-06T12:13:29;124.95;;;70.75;;
84891;SDS011;75154;42.072;21.394;2024-01-06T12:15:55;31.77;;;19.35;;
84891;SDS011;75154;42.072;21.394;2024-01-06T12:18:21;20.77;;;12.75;;
84891;SDS011;75154;42.072;21.394;2024-01-06T12:20:49;20.13;;;12.10;;
84891;SDS011;75154;42.072;21.394;2024-01-06T12:23:26;41.80;;;29.30;;
84891;SDS011;75154;42.072;21.394;2024-01-06T12:25:53;39.75;;;27.13;;
84891;SDS011;75154;42.072;21.394;2024-01-06T12:28:19;33.58;;;20.40;;
84891;SDS011;75154;42.072;21.394;2024-01-06T12:30:45;28.40;;;18.85;;
84891;SDS011;75154;42.072;21.394;2024-01-06T12:33:11;23.08;;;15.63;;
84891;SDS011;75154;42.072;21.394;2024-01-06T12:35:39;19.77;;;13.70;;
84891;SDS011;75154;42.072;21.394;2024-01-06T12:38:10;22.95;;;15.25;;
84891;SDS011;75154;42.072;21.394;2024-01-06T12:40:39;28.55;;;19.95;;
84891;SDS011;75154;42.072;21.394;2024-01-06T12:43:06;27.00;;;18.58;;
84891;SDS011;75154;42.072;21.394;2024-01-06T12:45:32;24.52;;;18.40;;
84891;SDS011;75154;42.072;21.394;2024-01-06T12:47:58;23.73;;;15.85;;
84891;SDS011;75154;42.072;21.394;2024-01-06T12:50:24;25.15;;;14.88;;
84891;SDS011;75154;42.072;21.394;2024-01-06T12:52:50;21.85;;;15.15;;
84891;SDS011;75154;42.072;21.394;2024-01-06T12:55:16;24.13;;;13.88;;
84891;SDS011;75154;42.072;21.394;2024-01-06T12:57:42;20.10;;;11.57;;
84891;SDS011;75154;42.072;21.394;2024-01-06T13:00:09;26.75;;;13.35;;
84891;SDS011;75154;42.072;21.394;2024-01-06T13:02:37;222.48;;;129.25;;
84891;SDS011;75154;42.072;21.394;2024-01-06T13:05:04;493.08;;;355.30;;
84891;SDS011;75154;42.072;21.394;2024-01-06T13:07:30;508.33;;;316.35;;
84891;SDS011;75154;42.072;21.394;2024-01-06T13:09:56;408.35;;;241.73;;
84891;SDS011;75154;42.072;21.394;2024-01-06T13:12:22;267.10;;;154.68;;
84891;SDS011;75154;42.072;21.394;2024-01-06T13:14:49;94.35;;;62.63;;
84891;SDS011;75154;42.072;21.394;2024-01-06T13:17:16;91.70;;;66.45;;
84891;SDS011;75154;42.072;21.394;2024-01-06T13:19:42;32.42;;;20.60;;
84891;SDS011;75154;42.072;21.394;2024-01-06T13:22:09;22.45;;;14.23;;
84891;SDS011;75154;42.072;21.394;2024-01-06T13:24:35;24.27;;;15.77;;
84891;SDS011;75154;42.072;21.394;2024-01-06T13:27:01;27.98;;;15.43;;
84891;SDS011;75154;42.072;21.394;2024-01-06T13:29:28;18.80;;;13.40;;
84891;SDS011;75154;42.072;21.394;2024-01-06T13:31:55;23.17;;;13.85;;
84891;SDS011;75154;42.072;21.394;2024-01-06T13:34:22;19.52;;;12.35;;
84891;SDS011;75154;42.072;21.394;2024-01-06T13:36:50;23.38;;;13.27;;
84891;SDS011;75154;42.072;21.394;2024-01-06T13:39:19;20.27;;;12.48;;
84891;SDS011;75154;42.072;21.394;2024-01-06T13:41:48;17.88;;;11.90;;
84891;SDS011;75154;42.072;21.394;2024-01-06T13:44:18;18.17;;;11.48;;
84891;SDS011;75154;42.072;21.394;2024-01-06T13:46:47;21.15;;;13.00;;
84891;SDS011;75154;42.072;21.394;2024-01-06T13:49:16;20.52;;;12.40;;
84891;SDS011;75154;42.072;21.394;2024-01-06T13:51:42;21.38;;;13.55;;
84891;SDS011;75154;42.072;21.394;2024-01-06T13:54:09;16.67;;;11.38;;
84891;SDS011;75154;42.072;21.394;2024-01-06T13:56:35;20.63;;;12.27;;
84891;SDS011;75154;42.072;21.394;2024-01-06T13:59:02;21.73;;;12.48;;
84891;SDS011;75154;42.072;21.394;2024-01-06T14:01:29;27.45;;;18.75;;
84891;SDS011;75154;42.072;21.394;2024-01-06T14:03:55;32.72;;;22.42;;
84891;SDS011;75154;42.072;21.394;2024-01-06T14:06:27;22.70;;;14.38;;
84891;SDS011;75154;42.072;21.394;2024-01-06T14:08:58;21.38;;;12.98;;
84891;SDS011;75154;42.072;21.394;2024-01-06T14:11:28;24.50;;;14.75;;